Aviation Digital Data Service (ADDS)

Output produced by TAFs form (1531 UTC 29 April 2017)
found at http://aviationweather.gov/adds/tafs/
 
KVEL 291127Z 2912/3012 03016G27KT P6SM VCSH FEW050 BKN100 
     FM291500 05018G25KT P6SM FEW050 BKN100 
     FM300100 03012G20KT P6SM FEW200 
     FM300200 03008KT P6SM FEW250